createdAt,value
2022-11-13T00:01:29.618Z,5.00
2022-11-13T00:03:57.885Z,5.10
2022-11-13T00:06:24.106Z,5.00
2022-11-13T00:08:53.382Z,4.87
2022-11-13T00:11:19.869Z,5.00
2022-11-13T00:13:46.455Z,5.23
2022-11-13T00:16:13.965Z,5.00
2022-11-13T00:18:40.189Z,5.00
2022-11-13T00:21:07.577Z,5.00
2022-11-13T00:23:34.768Z,5.10
2022-11-13T00:26:05.582Z,5.10
2022-11-13T00:28:31.850Z,5.47
2022-11-13T00:30:59.570Z,5.77
2022-11-13T00:33:45.472Z,5.60
2022-11-13T00:36:16.346Z,5.13
2022-11-13T00:38:42.796Z,5.20
2022-11-13T00:41:10.837Z,5.00
2022-11-13T00:43:37.367Z,5.03
2022-11-13T00:46:03.668Z,5.30
2022-11-13T00:48:30.493Z,5.20
2022-11-13T00:50:57.115Z,9.83
2022-11-13T00:53:23.449Z,5.20
2022-11-13T00:55:49.986Z,5.30
2022-11-13T00:58:16.445Z,5.20
2022-11-13T01:00:44.160Z,5.40
2022-11-13T01:03:10.912Z,5.30
2022-11-13T01:05:41.516Z,4.87
2022-11-13T01:08:08.175Z,5.00
2022-11-13T01:10:38.794Z,5.37
2022-11-13T01:13:05.044Z,5.20
2022-11-13T01:15:31.713Z,5.20
2022-11-13T01:17:58.006Z,5.30
2022-11-13T01:20:24.834Z,5.30
2022-11-13T01:22:51.426Z,5.10
2022-11-13T01:25:18.202Z,5.17
2022-11-13T01:27:44.711Z,5.20
2022-11-13T01:30:11.097Z,5.20
2022-11-13T01:32:37.347Z,5.83
2022-11-13T01:35:03.756Z,5.40
2022-11-13T01:37:30.053Z,5.37
2022-11-13T01:39:56.402Z,5.20
2022-11-13T01:42:22.705Z,5.30
2022-11-13T01:44:53.958Z,5.30
2022-11-13T01:47:21.528Z,5.30
2022-11-13T01:49:48.582Z,5.30
2022-11-13T01:52:17.465Z,5.30
2022-11-13T01:54:45.695Z,5.47
2022-11-13T01:57:12.011Z,5.50
2022-11-13T01:59:41.516Z,5.17
2022-11-13T02:02:08.189Z,5.30
2022-11-13T02:04:34.870Z,5.30
2022-11-13T02:07:11.384Z,5.57
2022-11-13T02:09:45.887Z,5.40
2022-11-13T02:12:14.051Z,5.80
2022-11-13T02:14:42.113Z,5.20
2022-11-13T02:17:09.665Z,5.40
2022-11-13T02:19:37.041Z,5.53
2022-11-13T02:22:06.817Z,5.43
2022-11-13T02:24:37.684Z,5.40
2022-11-13T02:27:05.846Z,5.40
2022-11-13T02:29:32.167Z,5.47
2022-11-13T02:31:58.597Z,6.67
2022-11-13T02:34:24.834Z,5.70
2022-11-13T02:36:51.121Z,5.60
2022-11-13T02:39:17.392Z,5.13
2022-11-13T02:41:43.685Z,5.40
2022-11-13T02:44:09.991Z,5.30
2022-11-13T02:46:36.442Z,5.60
2022-11-13T02:49:02.838Z,5.50
2022-11-13T02:51:29.056Z,5.40
2022-11-13T02:53:55.432Z,5.30
2022-11-13T02:56:21.703Z,5.37
2022-11-13T02:58:47.945Z,6.23
2022-11-13T03:01:14.293Z,5.40
2022-11-13T03:03:56.956Z,5.30
2022-11-13T03:06:23.604Z,5.40
2022-11-13T03:08:49.825Z,5.50
2022-11-13T03:11:16.165Z,5.70
2022-11-13T03:13:42.386Z,5.47
2022-11-13T03:16:09.360Z,5.60
2022-11-13T03:18:35.676Z,5.80
2022-11-13T03:21:06.353Z,5.67
2022-11-13T03:23:32.607Z,5.50
2022-11-13T03:26:02.842Z,5.60
2022-11-13T03:28:29.709Z,5.77
2022-11-13T03:30:56.288Z,5.60
2022-11-13T03:33:22.604Z,5.37
2022-11-13T03:35:48.946Z,5.50
2022-11-13T03:38:15.251Z,5.83
2022-11-13T03:40:41.998Z,5.70
2022-11-13T03:43:08.339Z,5.90
2022-11-13T03:45:34.784Z,5.43
2022-11-13T03:48:01.030Z,5.63
2022-11-13T03:50:27.336Z,5.80
2022-11-13T03:52:53.607Z,5.50
2022-11-13T03:55:19.805Z,5.70
2022-11-13T03:57:47.007Z,5.50
2022-11-13T04:00:13.847Z,5.80
2022-11-13T04:02:40.185Z,5.90
2022-11-13T04:05:06.999Z,5.57
2022-11-13T04:07:33.427Z,5.80
2022-11-13T04:09:59.719Z,5.50
2022-11-13T04:12:26.025Z,5.40
2022-11-13T04:14:52.272Z,5.30
2022-11-13T04:17:18.546Z,5.60
2022-11-13T04:19:44.786Z,5.60
2022-11-13T04:22:11.184Z,5.53
2022-11-13T04:24:37.482Z,5.60
2022-11-13T04:27:03.829Z,5.50
2022-11-13T04:29:30.046Z,5.40
2022-11-13T04:31:56.278Z,5.57
2022-11-13T04:34:22.512Z,5.60
2022-11-13T04:36:48.763Z,5.77
2022-11-13T04:39:15.040Z,5.40
2022-11-13T04:41:59.897Z,5.50
2022-11-13T04:44:26.258Z,5.60
2022-11-13T04:46:52.513Z,5.70
2022-11-13T04:49:18.789Z,5.63
2022-11-13T04:51:45.031Z,5.70
2022-11-13T04:54:11.274Z,5.50
2022-11-13T04:56:37.602Z,5.50
2022-11-13T04:59:03.828Z,5.40
2022-11-13T05:01:30.239Z,5.50
2022-11-13T05:03:56.576Z,5.70
2022-11-13T05:06:22.903Z,5.80
2022-11-13T05:08:49.234Z,5.70
2022-11-13T05:11:15.585Z,5.57
2022-11-13T05:13:42.002Z,5.70
2022-11-13T05:16:09.956Z,5.53
2022-11-13T05:18:37.208Z,5.50
2022-11-13T05:21:04.044Z,5.70
2022-11-13T05:23:30.321Z,5.60
2022-11-13T05:26:03.859Z,5.50
2022-11-13T05:28:30.523Z,5.60
2022-11-13T05:31:23.547Z,5.40
2022-11-13T05:33:49.893Z,5.70
2022-11-13T05:36:16.919Z,5.37
2022-11-13T05:38:43.289Z,5.47
2022-11-13T05:41:09.655Z,5.63
2022-11-13T05:43:36.567Z,5.50
2022-11-13T05:46:03.901Z,5.40
2022-11-13T05:48:30.868Z,5.50
2022-11-13T05:51:01.497Z,5.70
2022-11-13T05:53:28.029Z,5.60
2022-11-13T05:55:54.356Z,5.60
2022-11-13T05:58:20.844Z,5.50
2022-11-13T06:00:47.219Z,5.60
2022-11-13T06:03:13.488Z,5.23
2022-11-13T06:05:39.938Z,5.30
2022-11-13T06:08:06.271Z,5.70
2022-11-13T06:10:32.574Z,5.50
2022-11-13T06:12:58.888Z,5.50
2022-11-13T06:15:25.200Z,5.40
2022-11-13T06:17:51.494Z,5.70
2022-11-13T06:20:17.787Z,5.40
2022-11-13T06:22:44.098Z,5.60
2022-11-13T06:25:10.366Z,5.40
2022-11-13T06:27:36.594Z,5.50
2022-11-13T06:30:03.864Z,5.50
2022-11-13T06:32:30.135Z,5.63
2022-11-13T06:34:56.369Z,5.67
2022-11-13T06:37:22.618Z,5.57
2022-11-13T06:39:48.857Z,5.50
2022-11-13T06:42:15.093Z,5.50
2022-11-13T06:44:41.311Z,5.50
2022-11-13T06:47:07.588Z,5.73
2022-11-13T06:49:33.820Z,5.60
2022-11-13T06:52:00.054Z,5.50
2022-11-13T06:54:26.303Z,5.40
2022-11-13T06:56:52.551Z,5.50
2022-11-13T06:59:18.955Z,5.40
2022-11-13T07:01:45.214Z,5.50
2022-11-13T07:04:12.341Z,5.70
2022-11-13T07:06:40.517Z,5.70
2022-11-13T07:09:07.052Z,5.40
2022-11-13T07:11:33.445Z,5.57
2022-11-13T07:14:00.211Z,5.53
2022-11-13T07:16:38.963Z,5.90
2022-11-13T07:19:12.751Z,5.90
2022-11-13T07:21:39.032Z,5.60
2022-11-13T07:24:05.475Z,5.97
2022-11-13T07:26:31.770Z,5.30
2022-11-13T07:28:58.027Z,5.60
2022-11-13T07:31:24.276Z,5.60
2022-11-13T07:33:51.888Z,5.40
2022-11-13T07:36:18.369Z,5.60
2022-11-13T07:38:44.577Z,5.70
2022-11-13T07:41:10.902Z,5.90
2022-11-13T07:43:37.345Z,5.70
2022-11-13T07:46:03.641Z,5.77
2022-11-13T07:48:30.347Z,5.80
2022-11-13T07:50:59.802Z,5.80
2022-11-13T07:53:26.054Z,5.77
2022-11-13T07:55:52.328Z,5.70
2022-11-13T07:58:18.601Z,5.70
2022-11-13T08:00:44.900Z,5.53
2022-11-13T08:03:15.110Z,5.70
2022-11-13T08:05:41.937Z,5.80
2022-11-13T08:08:11.002Z,5.63
2022-11-13T08:10:37.410Z,5.60
2022-11-13T08:13:04.866Z,5.50
2022-11-13T08:15:31.274Z,5.60
2022-11-13T08:17:58.347Z,5.50
2022-11-13T08:20:25.564Z,5.30
2022-11-13T08:22:52.916Z,5.53
2022-11-13T08:25:19.207Z,5.53
2022-11-13T08:27:45.557Z,5.47
2022-11-13T08:30:12.292Z,5.40
2022-11-13T08:32:38.521Z,5.50
2022-11-13T08:35:05.081Z,5.40
2022-11-13T08:37:32.239Z,5.50
2022-11-13T08:39:58.503Z,5.40
2022-11-13T08:42:24.837Z,5.40
2022-11-13T08:44:51.127Z,5.20
2022-11-13T08:47:17.409Z,5.30
2022-11-13T08:49:43.795Z,5.40
2022-11-13T08:52:10.111Z,5.30
2022-11-13T08:54:36.352Z,5.50
2022-11-13T08:57:05.925Z,5.30
2022-11-13T08:59:32.473Z,5.20
2022-11-13T09:01:59.425Z,5.30
2022-11-13T09:04:25.921Z,5.23
2022-11-13T09:06:52.872Z,5.20
2022-11-13T09:09:19.958Z,5.20
2022-11-13T09:11:46.420Z,5.17
2022-11-13T09:14:12.681Z,5.10
2022-11-13T09:16:38.925Z,5.10
2022-11-13T09:19:05.357Z,5.00
2022-11-13T09:21:31.571Z,5.10
2022-11-13T09:23:57.816Z,5.00
2022-11-13T09:26:24.060Z,5.40
2022-11-13T09:28:50.288Z,4.90
2022-11-13T09:31:16.584Z,5.00
2022-11-13T09:33:42.825Z,5.10
2022-11-13T09:36:14.177Z,4.93
2022-11-13T09:38:40.753Z,4.90
2022-11-13T09:41:14.660Z,5.03
2022-11-13T09:43:43.052Z,5.10
2022-11-13T09:46:28.068Z,5.10
2022-11-13T09:48:56.350Z,5.13
2022-11-13T09:51:26.230Z,4.90
2022-11-13T09:53:52.557Z,5.30
2022-11-13T09:56:18.773Z,5.00
2022-11-13T09:59:03.549Z,4.80
2022-11-13T10:01:42.140Z,4.80
2022-11-13T10:04:14.281Z,4.80
2022-11-13T10:06:58.390Z,4.50
2022-11-13T10:09:27.678Z,4.70
2022-11-13T10:11:55.843Z,4.80
2022-11-13T10:14:43.991Z,4.60
2022-11-13T10:17:26.855Z,4.60
2022-11-13T10:19:58.920Z,4.50
2022-11-13T10:22:48.458Z,4.50
2022-11-13T10:25:19.516Z,4.60
2022-11-13T10:27:50.110Z,4.60
2022-11-13T10:30:18.393Z,4.67
2022-11-13T10:32:45.101Z,4.50
2022-11-13T10:35:20.515Z,4.40
2022-11-13T10:38:08.508Z,4.37
2022-11-13T10:40:37.197Z,4.40
2022-11-13T10:43:15.510Z,4.10
2022-11-13T10:45:43.455Z,4.10
2022-11-13T10:48:19.804Z,4.20
2022-11-13T10:50:53.081Z,4.20
2022-11-13T10:53:20.034Z,4.23
2022-11-13T10:55:50.692Z,4.20
2022-11-13T10:58:18.231Z,4.10
2022-11-13T11:00:47.267Z,3.70
2022-11-13T11:03:14.801Z,3.30
2022-11-13T11:05:51.112Z,3.00
2022-11-13T11:08:17.412Z,2.70
2022-11-13T11:11:12.181Z,2.33
2022-11-13T11:13:38.439Z,2.20
2022-11-13T11:16:05.773Z,2.10
2022-11-13T11:18:50.618Z,1.90
2022-11-13T11:21:19.354Z,1.70
2022-11-13T11:24:01.052Z,1.70
2022-11-13T11:26:27.263Z,1.60
2022-11-13T11:29:06.058Z,1.60
2022-11-13T11:31:32.259Z,1.50
2022-11-13T11:34:18.813Z,1.50
2022-11-13T11:37:00.381Z,1.40
2022-11-13T11:39:36.098Z,1.40
2022-11-13T11:42:08.509Z,1.30
2022-11-13T11:44:40.506Z,1.40
2022-11-13T11:47:13.107Z,1.30
2022-11-13T11:49:39.369Z,1.40
2022-11-13T11:52:16.500Z,1.30
2022-11-13T11:54:48.935Z,1.30
2022-11-13T11:57:22.706Z,1.30
2022-11-13T12:00:05.041Z,1.30
2022-11-13T12:02:34.017Z,1.30
2022-11-13T12:05:16.977Z,1.30
2022-11-13T12:07:52.412Z,1.40
2022-11-13T12:10:21.427Z,1.30
2022-11-13T12:12:56.329Z,1.30
2022-11-13T12:15:31.848Z,1.30
2022-11-13T12:18:03.434Z,1.33
2022-11-13T12:20:39.447Z,1.30
2022-11-13T12:23:24.539Z,1.30
2022-11-13T12:26:03.185Z,1.30
2022-11-13T12:28:47.506Z,1.40
2022-11-13T12:31:39.127Z,1.30
2022-11-13T12:34:11.496Z,1.30
2022-11-13T12:36:37.959Z,1.30
2022-11-13T12:39:14.708Z,1.20
2022-11-13T12:41:45.414Z,1.20
2022-11-13T12:44:24.333Z,1.23
2022-11-13T12:46:51.533Z,1.20
2022-11-13T12:49:23.894Z,1.30
2022-11-13T12:51:54.682Z,1.20
2022-11-13T12:54:34.565Z,1.20
2022-11-13T12:57:13.166Z,1.20
2022-11-13T12:59:41.204Z,1.10
2022-11-13T13:02:07.385Z,1.30
2022-11-13T13:04:42.976Z,1.17
2022-11-13T13:07:15.299Z,1.20
2022-11-13T13:10:03.481Z,1.13
2022-11-13T13:12:37.598Z,1.10
2022-11-13T13:15:10.079Z,1.17
2022-11-13T13:17:36.652Z,1.00
2022-11-13T13:20:15.114Z,1.10
2022-11-13T13:22:41.414Z,1.03
2022-11-13T13:25:22.718Z,1.10
2022-11-13T13:28:18.024Z,1.10
2022-11-13T13:30:53.424Z,1.03
2022-11-13T13:33:43.028Z,0.93
2022-11-13T13:36:09.415Z,1.10
2022-11-13T13:38:50.891Z,1.17
2022-11-13T13:41:25.818Z,1.30
2022-11-13T13:44:01.276Z,1.30
2022-11-13T13:46:30.753Z,1.40
2022-11-13T13:49:01.709Z,1.43
2022-11-13T13:51:29.498Z,1.50
2022-11-13T13:53:57.930Z,1.70
2022-11-13T13:56:24.628Z,1.87
2022-11-13T13:58:51.512Z,1.80
2022-11-13T14:01:28.611Z,1.90
2022-11-13T14:04:05.968Z,1.90
2022-11-13T14:06:32.995Z,1.90
2022-11-13T14:09:19.105Z,2.10
2022-11-13T14:11:45.522Z,2.10
2022-11-13T14:14:22.564Z,2.13
2022-11-13T14:16:53.392Z,3.13
2022-11-13T14:19:20.042Z,2.20
2022-11-13T14:21:47.553Z,2.10
2022-11-13T14:24:16.534Z,2.30
2022-11-13T14:26:42.949Z,2.37
2022-11-13T14:29:32.252Z,2.23
2022-11-13T14:32:06.305Z,2.30
2022-11-13T14:34:32.738Z,2.50
2022-11-13T14:37:31.597Z,2.40
2022-11-13T14:40:00.728Z,2.50
2022-11-13T14:42:27.033Z,2.50
2022-11-13T14:44:53.339Z,2.40
2022-11-13T14:47:27.148Z,2.63
2022-11-13T14:49:53.622Z,2.40
2022-11-13T14:52:20.671Z,2.60
2022-11-13T14:55:13.764Z,2.70
2022-11-13T14:57:33.300Z,2.70
2022-11-13T15:00:35.209Z,2.60
2022-11-13T15:03:02.408Z,2.60
2022-11-13T15:05:28.831Z,2.60
2022-11-13T15:07:55.722Z,3.00
2022-11-13T15:10:24.524Z,2.80
2022-11-13T15:12:50.964Z,2.70
2022-11-13T15:15:23.396Z,2.73
2022-11-13T15:17:50.957Z,2.80
2022-11-13T15:20:20.146Z,2.90
2022-11-13T15:22:47.046Z,2.97
2022-11-13T15:25:14.991Z,2.80
2022-11-13T15:27:43.253Z,2.80
2022-11-13T15:30:10.361Z,2.90
2022-11-13T15:32:36.708Z,2.90
2022-11-13T15:35:03.843Z,2.90
2022-11-13T15:37:30.086Z,3.00
2022-11-13T15:39:56.347Z,3.00
2022-11-13T15:42:27.300Z,2.90
2022-11-13T15:44:53.571Z,3.10
2022-11-13T15:47:26.918Z,3.10
2022-11-13T15:50:12.526Z,2.90
2022-11-13T15:52:41.172Z,3.10
2022-11-13T15:55:20.757Z,3.00
2022-11-13T15:57:51.634Z,3.40
2022-11-13T16:00:21.689Z,4.13
2022-11-13T16:02:52.389Z,3.30
2022-11-13T16:05:19.856Z,3.30
2022-11-13T16:07:46.343Z,3.40
2022-11-13T16:10:12.781Z,3.40
2022-11-13T16:12:39.412Z,4.70
2022-11-13T16:15:06.626Z,3.30
2022-11-13T16:17:37.920Z,3.40
2022-11-13T16:20:07.676Z,3.50
2022-11-13T16:22:34.345Z,3.50
2022-11-13T16:25:00.820Z,3.50
2022-11-13T16:27:31.746Z,3.60
2022-11-13T16:30:01.104Z,3.80
2022-11-13T16:32:31.849Z,3.60
2022-11-13T16:34:58.340Z,3.60
2022-11-13T16:37:26.379Z,3.70
2022-11-13T16:39:52.930Z,3.73
2022-11-13T16:42:19.285Z,3.83
2022-11-13T16:44:45.875Z,3.73
2022-11-13T16:47:22.585Z,3.60
2022-11-13T16:49:49.133Z,3.80
2022-11-13T16:52:15.533Z,4.00
2022-11-13T16:54:41.786Z,4.00
2022-11-13T16:57:12.123Z,3.73
2022-11-13T16:59:38.556Z,4.00
2022-11-13T17:02:11.774Z,3.90
2022-11-13T17:04:38.313Z,4.10
2022-11-13T17:07:04.722Z,4.10
2022-11-13T17:09:31.221Z,4.00
2022-11-13T17:11:57.503Z,3.90
2022-11-13T17:14:23.753Z,3.90
2022-11-13T17:16:50.009Z,4.00
2022-11-13T17:19:16.304Z,4.20
2022-11-13T17:21:44.438Z,4.10
2022-11-13T17:24:10.900Z,4.00
2022-11-13T17:26:37.154Z,4.20
2022-11-13T17:29:05.728Z,4.13
2022-11-13T17:31:32.227Z,4.40
2022-11-13T17:33:58.657Z,4.30
2022-11-13T17:36:24.905Z,4.20
2022-11-13T17:38:51.138Z,4.40
2022-11-13T17:41:17.612Z,4.40
2022-11-13T17:43:44.120Z,4.50
2022-11-13T17:46:11.919Z,4.33
2022-11-13T17:48:38.451Z,4.30
2022-11-13T17:51:06.717Z,4.30
2022-11-13T17:53:33.150Z,4.27
2022-11-13T17:56:00.935Z,4.50
2022-11-13T17:58:27.950Z,4.17
2022-11-13T18:00:55.494Z,4.40
2022-11-13T18:03:22.769Z,4.30
2022-11-13T18:05:52.383Z,4.50
2022-11-13T18:08:20.617Z,4.57
2022-11-13T18:10:47.287Z,4.60
2022-11-13T18:13:14.127Z,4.47
2022-11-13T18:15:42.822Z,4.40
2022-11-13T18:18:09.976Z,4.60
2022-11-13T18:20:38.211Z,4.83
2022-11-13T18:23:04.494Z,4.63
2022-11-13T18:25:38.342Z,4.40
2022-11-13T18:28:05.916Z,4.70
2022-11-13T18:30:32.251Z,4.70
2022-11-13T18:32:58.568Z,4.60
2022-11-13T18:35:24.901Z,4.60
2022-11-13T18:37:52.272Z,4.60
2022-11-13T18:40:18.654Z,4.40
2022-11-13T18:42:44.996Z,4.63
2022-11-13T18:45:11.814Z,4.67
2022-11-13T18:47:38.145Z,4.80
2022-11-13T18:50:04.618Z,4.70
2022-11-13T18:52:32.623Z,4.50
2022-11-13T18:54:58.964Z,4.70
2022-11-13T18:57:25.392Z,4.60
2022-11-13T18:59:51.694Z,4.97
2022-11-13T19:02:18.047Z,4.60
2022-11-13T19:04:44.700Z,4.60
2022-11-13T19:07:12.306Z,4.70
2022-11-13T19:09:44.754Z,4.57
2022-11-13T19:12:11.061Z,4.80
2022-11-13T19:14:37.342Z,4.70
2022-11-13T19:17:03.613Z,4.67
2022-11-13T19:19:29.932Z,5.20
2022-11-13T19:21:56.263Z,5.13
2022-11-13T19:24:22.602Z,4.90
2022-11-13T19:26:50.144Z,4.80
2022-11-13T19:29:16.425Z,4.90
2022-11-13T19:31:45.222Z,4.80
2022-11-13T19:34:12.193Z,5.13
2022-11-13T19:36:40.899Z,4.80
2022-11-13T19:39:07.284Z,4.93
2022-11-13T19:41:33.721Z,4.87
2022-11-13T19:44:00.349Z,4.90
2022-11-13T19:46:26.922Z,4.77
2022-11-13T19:48:53.313Z,4.80
2022-11-13T19:51:21.356Z,4.80
2022-11-13T19:53:48.084Z,4.90
2022-11-13T19:56:15.506Z,4.70
2022-11-13T19:58:44.198Z,4.90
2022-11-13T20:01:11.798Z,4.70
2022-11-13T20:03:38.286Z,4.80
2022-11-13T20:06:04.772Z,4.80
2022-11-13T20:08:33.032Z,4.80
2022-11-13T20:11:06.497Z,4.90
2022-11-13T20:13:34.551Z,4.80
2022-11-13T20:16:01.161Z,4.87
2022-11-13T20:18:27.845Z,5.00
2022-11-13T20:20:55.139Z,4.80
2022-11-13T20:23:21.718Z,4.80
2022-11-13T20:25:51.954Z,5.00
2022-11-13T20:28:18.291Z,4.80
2022-11-13T20:30:44.582Z,4.73
2022-11-13T20:33:10.943Z,4.80
2022-11-13T20:35:37.253Z,4.70
2022-11-13T20:38:03.559Z,4.80
2022-11-13T20:40:29.861Z,4.90
2022-11-13T20:42:56.197Z,4.80
2022-11-13T20:45:22.555Z,5.00
2022-11-13T20:47:48.958Z,4.90
2022-11-13T20:50:15.438Z,4.90
2022-11-13T20:52:41.732Z,4.90
2022-11-13T20:55:08.232Z,4.80
2022-11-13T20:57:39.685Z,4.83
2022-11-13T21:00:07.514Z,4.77
2022-11-13T21:02:33.833Z,4.90
2022-11-13T21:05:00.097Z,5.03
2022-11-13T21:07:26.459Z,4.90
2022-11-13T21:09:52.791Z,5.20
2022-11-13T21:12:19.081Z,5.00
2022-11-13T21:14:45.354Z,4.80
2022-11-13T21:17:11.683Z,4.90
2022-11-13T21:19:38.021Z,4.80
2022-11-13T21:22:04.338Z,4.90
2022-11-13T21:24:31.106Z,4.90
2022-11-13T21:26:57.458Z,4.93
2022-11-13T21:29:23.771Z,4.90
2022-11-13T21:31:50.097Z,4.70
2022-11-13T21:34:16.523Z,4.90
2022-11-13T21:36:42.854Z,4.83
2022-11-13T21:39:09.207Z,5.00
2022-11-13T21:41:35.511Z,4.90
2022-11-13T21:44:04.557Z,4.90
2022-11-13T21:46:32.553Z,5.20
2022-11-13T21:48:58.901Z,5.10
2022-11-13T21:51:25.686Z,5.03
2022-11-13T21:53:52.087Z,5.00
2022-11-13T21:56:18.624Z,5.00
2022-11-13T21:58:44.951Z,5.00
2022-11-13T22:01:11.841Z,5.07
2022-11-13T22:03:38.465Z,5.00
2022-11-13T22:06:20.250Z,5.17
2022-11-13T22:08:53.571Z,5.30
2022-11-13T22:11:19.973Z,5.10
2022-11-13T22:13:46.491Z,5.20
2022-11-13T22:16:13.160Z,5.10
2022-11-13T22:18:39.560Z,5.30
2022-11-13T22:21:07.639Z,5.50
2022-11-13T22:23:34.314Z,5.30
2022-11-13T22:26:08.283Z,5.53
2022-11-13T22:28:35.317Z,5.40
2022-11-13T22:31:01.788Z,5.30
2022-11-13T22:33:29.186Z,5.20
2022-11-13T22:36:06.199Z,5.10
2022-11-13T22:38:36.057Z,5.30
2022-11-13T22:41:04.064Z,5.30
2022-11-13T22:43:38.024Z,5.30
2022-11-13T22:46:05.088Z,5.30
2022-11-13T22:48:31.668Z,5.10
2022-11-13T22:51:15.685Z,5.20
2022-11-13T22:53:42.772Z,5.40
2022-11-13T22:56:13.207Z,5.30
2022-11-13T22:58:39.673Z,5.30
2022-11-13T23:01:07.348Z,5.20
2022-11-13T23:03:36.442Z,5.30
2022-11-13T23:06:02.829Z,5.10
2022-11-13T23:08:30.181Z,5.43
2022-11-13T23:10:57.045Z,5.10
2022-11-13T23:13:24.097Z,5.20
2022-11-13T23:15:50.645Z,5.40
2022-11-13T23:18:17.152Z,5.10
2022-11-13T23:20:43.728Z,5.30
2022-11-13T23:23:10.167Z,5.03
2022-11-13T23:25:36.776Z,5.10
2022-11-13T23:28:03.447Z,5.13
2022-11-13T23:30:29.780Z,5.27
2022-11-13T23:32:56.126Z,5.23
2022-11-13T23:35:22.409Z,5.20
2022-11-13T23:37:48.672Z,5.20
2022-11-13T23:40:15.002Z,5.10
2022-11-13T23:42:54.835Z,5.20
2022-11-13T23:45:21.985Z,5.10
2022-11-13T23:47:48.397Z,5.20
2022-11-13T23:50:14.742Z,5.20
2022-11-13T23:52:41.040Z,5.10
2022-11-13T23:55:07.619Z,5.20
2022-11-13T23:57:33.961Z,5.50
